createdAt,value
2022-07-27T00:00:06.548Z,20.74
2022-07-27T00:03:05.321Z,20.72
2022-07-27T00:05:40.053Z,20.72
2022-07-27T00:08:13.657Z,20.72
2022-07-27T00:10:46.824Z,20.71
2022-07-27T00:13:20.542Z,20.68
2022-07-27T00:15:54.169Z,20.67
2022-07-27T00:18:27.828Z,20.68
2022-07-27T00:21:01.247Z,20.65
2022-07-27T00:23:34.620Z,20.64
2022-07-27T00:26:08.331Z,20.61
2022-07-27T00:28:41.888Z,20.60
2022-07-27T00:31:15.104Z,20.57
2022-07-27T00:33:48.545Z,20.53
2022-07-27T00:36:21.690Z,20.49
2022-07-27T00:38:55.024Z,20.48
2022-07-27T00:41:28.312Z,20.49
2022-07-27T00:44:05.534Z,20.50
2022-07-27T00:46:38.851Z,20.49
2022-07-27T00:49:13.165Z,20.48
2022-07-27T00:51:47.513Z,20.46
2022-07-27T00:54:21.294Z,20.43
2022-07-27T00:56:54.473Z,20.42
2022-07-27T00:59:29.052Z,20.42
2022-07-27T01:02:02.426Z,20.43
2022-07-27T01:04:36.049Z,20.44
2022-07-27T01:07:10.024Z,20.46
2022-07-27T01:09:58.737Z,20.45
2022-07-27T01:12:33.656Z,20.46
2022-07-27T01:15:08.898Z,20.46
2022-07-27T01:17:42.668Z,20.45
2022-07-27T01:20:15.955Z,20.45
2022-07-27T01:22:49.411Z,20.43
2022-07-27T01:25:23.219Z,20.40
2022-07-27T01:27:57.312Z,20.38
2022-07-27T01:30:32.069Z,20.36
2022-07-27T01:33:07.228Z,20.35
2022-07-27T01:35:41.263Z,20.34
2022-07-27T01:38:15.434Z,20.32
2022-07-27T01:40:48.738Z,20.30
2022-07-27T01:43:22.738Z,20.27
2022-07-27T01:45:56.648Z,20.25
2022-07-27T01:48:30.183Z,20.23
2022-07-27T01:51:03.694Z,20.19
2022-07-27T01:53:37.206Z,20.19
2022-07-27T01:56:14.730Z,20.15
2022-07-27T01:58:48.565Z,20.11
2022-07-27T02:01:23.092Z,20.06
2022-07-27T02:03:57.233Z,20.04
2022-07-27T02:06:30.946Z,20.02
2022-07-27T02:09:04.496Z,20.00
2022-07-27T02:11:55.916Z,19.95
2022-07-27T02:14:29.340Z,19.96
2022-07-27T02:17:02.685Z,19.96
2022-07-27T02:19:36.863Z,19.93
2022-07-27T02:22:10.014Z,19.90
2022-07-27T02:24:43.576Z,19.88
2022-07-27T02:27:16.642Z,19.83
2022-07-27T02:29:50.024Z,19.81
2022-07-27T02:32:23.809Z,19.81
2022-07-27T02:34:57.013Z,19.83
2022-07-27T02:37:30.739Z,19.84
2022-07-27T02:40:04.253Z,19.82
2022-07-27T02:42:37.856Z,19.78
2022-07-27T02:45:12.692Z,19.78
2022-07-27T02:47:46.601Z,19.78
2022-07-27T02:50:19.779Z,19.79
2022-07-27T02:52:53.222Z,19.79
2022-07-27T02:55:26.901Z,19.77
2022-07-27T02:58:00.324Z,19.78
2022-07-27T03:00:34.597Z,19.78
2022-07-27T03:03:07.929Z,19.81
2022-07-27T03:05:41.133Z,19.80
2022-07-27T03:08:14.656Z,19.80
2022-07-27T03:10:48.751Z,19.77
2022-07-27T03:13:23.357Z,19.77
2022-07-27T03:15:56.972Z,19.77
2022-07-27T03:18:30.694Z,19.76
2022-07-27T03:21:04.306Z,19.76
2022-07-27T03:23:40.826Z,19.76
2022-07-27T03:26:14.884Z,19.74
2022-07-27T03:28:48.353Z,19.71
2022-07-27T03:31:21.583Z,19.68
2022-07-27T03:33:54.980Z,19.67
2022-07-27T03:36:28.581Z,19.68
2022-07-27T03:39:06.202Z,19.66
2022-07-27T03:41:39.878Z,19.65
2022-07-27T03:44:13.370Z,19.64
2022-07-27T03:46:47.055Z,19.64
2022-07-27T03:49:20.820Z,19.64
2022-07-27T03:51:54.139Z,19.64
2022-07-27T03:54:28.189Z,19.66
2022-07-27T03:57:02.499Z,19.66
2022-07-27T03:59:35.783Z,19.66
2022-07-27T04:02:09.409Z,19.64
2022-07-27T04:04:42.824Z,19.63
2022-07-27T04:07:16.089Z,19.62
2022-07-27T04:09:49.506Z,19.61
2022-07-27T04:12:24.242Z,19.57
2022-07-27T04:14:58.450Z,19.57
2022-07-27T04:17:53.508Z,19.58
2022-07-27T04:20:25.621Z,19.55
2022-07-27T04:22:59.019Z,19.53
2022-07-27T04:25:32.720Z,19.57
2022-07-27T04:28:06.269Z,19.58
2022-07-27T04:30:39.533Z,19.61
2022-07-27T04:33:13.286Z,19.64
2022-07-27T04:35:47.049Z,19.66
2022-07-27T04:38:20.442Z,19.67
2022-07-27T04:40:58.123Z,19.66
2022-07-27T04:43:32.029Z,19.66
2022-07-27T04:46:11.766Z,19.66
2022-07-27T04:48:49.489Z,19.68
2022-07-27T04:51:23.659Z,19.66
2022-07-27T04:53:58.361Z,19.70
2022-07-27T04:56:32.394Z,19.72
2022-07-27T04:59:05.924Z,19.74
2022-07-27T05:01:39.284Z,19.80
2022-07-27T05:04:13.078Z,19.84
2022-07-27T05:06:47.123Z,19.89
2022-07-27T05:09:22.525Z,19.93
2022-07-27T05:11:56.214Z,19.98
2022-07-27T05:14:29.517Z,20.03
2022-07-27T05:17:02.901Z,20.08
2022-07-27T05:19:40.300Z,20.16
2022-07-27T05:22:14.033Z,20.24
2022-07-27T05:24:47.271Z,20.49
2022-07-27T05:27:20.368Z,21.40
2022-07-27T05:29:53.516Z,22.99
2022-07-27T05:32:27.418Z,24.38
2022-07-27T05:35:00.851Z,25.02
2022-07-27T05:37:34.094Z,24.85
2022-07-27T05:40:09.331Z,24.60
2022-07-27T05:42:45.536Z,24.32
2022-07-27T05:45:19.365Z,24.09
2022-07-27T05:47:54.710Z,23.84
2022-07-27T05:50:28.170Z,23.57
2022-07-27T05:53:01.591Z,23.37
2022-07-27T05:55:34.916Z,23.22
2022-07-27T05:58:07.900Z,23.32
2022-07-27T06:00:41.094Z,24.03
2022-07-27T06:03:14.374Z,24.37
2022-07-27T06:05:47.432Z,24.45
2022-07-27T06:08:20.998Z,24.40
2022-07-27T06:10:54.249Z,24.61
2022-07-27T06:13:28.537Z,24.79
2022-07-27T06:16:02.090Z,24.61
2022-07-27T06:18:35.281Z,24.40
2022-07-27T06:21:08.787Z,24.26
2022-07-27T06:23:42.074Z,24.25
2022-07-27T06:26:15.680Z,24.20
2022-07-27T06:28:48.927Z,24.09
2022-07-27T06:31:22.087Z,23.96
2022-07-27T06:33:56.049Z,23.86
2022-07-27T06:36:33.591Z,23.76
2022-07-27T06:39:07.039Z,23.69
2022-07-27T06:41:40.204Z,23.61
2022-07-27T06:44:13.706Z,23.62
2022-07-27T06:46:49.523Z,23.67
2022-07-27T06:49:23.416Z,24.08
2022-07-27T06:51:56.566Z,24.66
2022-07-27T06:54:29.736Z,25.10
2022-07-27T06:57:02.703Z,25.63
2022-07-27T06:59:43.293Z,26.63
2022-07-27T07:02:17.819Z,27.17
2022-07-27T07:05:02.830Z,27.81
2022-07-27T07:07:35.988Z,28.02
2022-07-27T07:10:11.121Z,28.23
2022-07-27T07:12:44.295Z,29.36
2022-07-27T07:15:18.582Z,30.29
2022-07-27T07:17:51.934Z,30.39
2022-07-27T07:20:25.837Z,30.37
2022-07-27T07:22:59.233Z,30.72
2022-07-27T07:25:32.905Z,31.01
2022-07-27T07:28:06.300Z,30.79
2022-07-27T07:30:39.756Z,30.29
2022-07-27T07:33:12.778Z,29.69
2022-07-27T07:36:12.302Z,29.14
2022-07-27T07:38:39.278Z,28.75
2022-07-27T07:41:12.501Z,28.50
2022-07-27T07:43:46.110Z,28.26
2022-07-27T07:46:19.184Z,28.07
2022-07-27T07:48:53.371Z,27.80
2022-07-27T07:51:26.531Z,27.59
2022-07-27T07:53:59.717Z,27.41
2022-07-27T07:56:33.099Z,27.24
2022-07-27T07:59:06.624Z,27.11
2022-07-27T08:01:39.993Z,26.94
2022-07-27T08:04:13.317Z,26.77
2022-07-27T08:06:46.424Z,26.66
2022-07-27T08:09:21.857Z,26.52
2022-07-27T08:11:55.172Z,26.42
2022-07-27T08:14:28.317Z,26.32
2022-07-27T08:17:01.363Z,26.30
2022-07-27T08:19:39.870Z,26.32
2022-07-27T08:22:13.483Z,26.29
2022-07-27T08:24:46.560Z,26.24
2022-07-27T08:27:19.939Z,26.14
2022-07-27T08:29:53.011Z,26.02
2022-07-27T08:32:28.783Z,25.93
2022-07-27T08:35:02.666Z,25.81
2022-07-27T08:37:36.283Z,25.70
2022-07-27T08:43:05.552Z,25.40
2022-07-27T08:45:42.055Z,25.27
2022-07-27T08:48:18.160Z,25.31
2022-07-27T08:50:52.375Z,25.40
2022-07-27T08:53:26.400Z,25.45
2022-07-27T08:56:19.610Z,25.46
2022-07-27T08:58:52.731Z,25.40
2022-07-27T09:01:26.098Z,25.50
2022-07-27T09:03:59.561Z,25.58
2022-07-27T09:06:53.414Z,25.57
2022-07-27T09:09:27.833Z,25.58
2022-07-27T09:12:12.445Z,25.65
2022-07-27T09:14:51.113Z,25.75
2022-07-27T09:17:48.016Z,25.81
2022-07-27T09:20:22.880Z,25.93
2022-07-27T09:22:57.491Z,26.11
2022-07-27T09:28:34.301Z,26.52
2022-07-27T09:31:11.641Z,26.52
2022-07-27T09:33:50.142Z,26.33
2022-07-27T09:36:25.373Z,26.09
2022-07-27T09:39:03.595Z,25.91
2022-07-27T09:41:49.828Z,25.84
2022-07-27T09:44:42.125Z,25.84
2022-07-27T09:47:28.000Z,25.80
2022-07-27T09:50:21.174Z,25.67
2022-07-27T09:52:54.521Z,25.67
2022-07-27T09:55:28.270Z,25.74
2022-07-27T09:58:02.343Z,25.86
2022-07-27T10:00:35.611Z,25.98
2022-07-27T10:03:09.996Z,26.13
2022-07-27T10:05:44.078Z,26.18
2022-07-27T10:08:17.879Z,26.58
2022-07-27T10:10:51.683Z,27.75
2022-07-27T10:13:26.104Z,28.08
2022-07-27T10:16:00.957Z,28.11
2022-07-27T10:18:44.536Z,28.06
2022-07-27T10:21:31.073Z,27.75
2022-07-27T10:24:06.602Z,27.58
2022-07-27T10:26:41.769Z,27.48
2022-07-27T10:29:22.852Z,27.44
2022-07-27T10:32:03.657Z,27.36
2022-07-27T10:34:42.990Z,27.08
2022-07-27T10:37:18.210Z,26.87
2022-07-27T10:40:15.785Z,26.78
2022-07-27T10:42:54.407Z,26.79
2022-07-27T10:46:00.335Z,26.87
2022-07-27T10:48:48.101Z,26.91
2022-07-27T10:51:38.560Z,27.17
2022-07-27T10:54:24.159Z,27.02
2022-07-27T10:57:00.220Z,26.89
2022-07-27T11:00:11.176Z,27.21
2022-07-27T11:02:46.576Z,27.49
2022-07-27T11:05:58.445Z,27.44
2022-07-27T11:08:35.972Z,27.17
2022-07-27T11:11:08.731Z,26.98
2022-07-27T11:13:41.948Z,26.82
2022-07-27T11:16:24.408Z,26.75
2022-07-27T11:19:01.851Z,26.78
2022-07-27T11:21:37.630Z,26.71
2022-07-27T11:24:14.158Z,26.73
2022-07-27T11:26:50.007Z,26.71
2022-07-27T11:29:25.361Z,26.78
2022-07-27T11:32:01.165Z,27.07
2022-07-27T11:34:36.117Z,27.33
2022-07-27T11:37:19.637Z,27.31
2022-07-27T11:40:05.015Z,27.20
2022-07-27T11:42:53.748Z,27.20
2022-07-27T11:45:33.443Z,27.18
2022-07-27T11:48:10.199Z,27.13
2022-07-27T11:51:00.584Z,27.11
2022-07-27T11:53:34.347Z,27.12
2022-07-27T11:56:08.228Z,27.16
2022-07-27T11:59:14.864Z,27.19
2022-07-27T12:01:52.805Z,27.00
2022-07-27T12:04:31.425Z,26.81
2022-07-27T12:07:11.035Z,26.71
2022-07-27T12:09:48.552Z,26.63
2022-07-27T12:12:23.581Z,26.63
2022-07-27T12:14:58.366Z,26.73
2022-07-27T12:17:33.510Z,26.74
2022-07-27T12:20:09.561Z,26.71
2022-07-27T12:22:44.844Z,26.78
2022-07-27T12:25:33.059Z,26.74
2022-07-27T12:28:06.072Z,26.73
2022-07-27T12:30:41.687Z,26.62
2022-07-27T12:33:30.137Z,26.85
2022-07-27T12:36:05.249Z,27.03
2022-07-27T12:38:46.256Z,26.98
2022-07-27T12:41:29.851Z,27.04
2022-07-27T12:44:10.701Z,26.98
2022-07-27T12:46:59.877Z,26.96
2022-07-27T12:49:36.181Z,26.92
2022-07-27T12:52:13.959Z,26.89
2022-07-27T12:54:47.079Z,26.89
2022-07-27T12:57:33.870Z,26.79
2022-07-27T13:00:17.757Z,26.67
2022-07-27T13:02:50.995Z,26.57
2022-07-27T13:05:24.196Z,26.58
2022-07-27T13:07:57.912Z,26.65
2022-07-27T13:10:31.141Z,26.69
2022-07-27T13:13:04.342Z,26.70
2022-07-27T13:15:37.956Z,26.68
2022-07-27T13:18:23.953Z,26.63
2022-07-27T13:21:02.502Z,26.47
2022-07-27T13:23:38.383Z,26.38
2022-07-27T13:26:11.940Z,26.39
2022-07-27T13:28:45.336Z,26.53
2022-07-27T13:31:18.891Z,26.53
2022-07-27T13:33:52.933Z,26.45
2022-07-27T13:36:26.353Z,26.32
2022-07-27T13:39:00.546Z,26.19
2022-07-27T13:41:34.036Z,26.16
2022-07-27T13:44:10.364Z,26.25
2022-07-27T13:46:49.400Z,26.33
2022-07-27T13:49:23.666Z,26.36
2022-07-27T13:51:57.014Z,26.30
2022-07-27T13:54:30.927Z,26.32
2022-07-27T13:57:04.363Z,26.41
2022-07-27T13:59:37.757Z,26.49
2022-07-27T14:02:11.861Z,26.55
2022-07-27T14:04:45.163Z,26.65
2022-07-27T14:07:18.425Z,26.68
2022-07-27T14:10:09.815Z,26.58
2022-07-27T14:12:43.416Z,26.51
2022-07-27T14:15:17.085Z,26.55
2022-07-27T14:17:50.690Z,26.55
2022-07-27T14:20:24.357Z,26.47
2022-07-27T14:22:57.982Z,26.35
2022-07-27T14:25:32.410Z,26.19
2022-07-27T14:28:06.181Z,26.12
2022-07-27T14:30:40.106Z,26.17
2022-07-27T14:33:13.465Z,26.25
2022-07-27T14:35:46.748Z,26.26
2022-07-27T14:38:26.986Z,26.30
2022-07-27T14:41:04.531Z,26.24
2022-07-27T14:43:38.012Z,26.14
2022-07-27T14:46:11.533Z,25.99
2022-07-27T14:51:38.975Z,25.90
2022-07-27T14:54:12.440Z,25.88
2022-07-27T14:56:45.979Z,25.91
2022-07-27T14:59:19.718Z,25.93
2022-07-27T15:01:54.396Z,25.99
2022-07-27T15:04:28.296Z,26.03
2022-07-27T15:07:02.286Z,26.04
2022-07-27T15:09:36.242Z,26.00
2022-07-27T15:12:10.613Z,25.95
2022-07-27T15:14:44.009Z,25.92
2022-07-27T15:17:17.656Z,25.90
2022-07-27T15:19:52.027Z,25.87
2022-07-27T15:22:25.822Z,25.80
2022-07-27T15:24:59.097Z,25.75
2022-07-27T15:27:32.780Z,25.74
2022-07-27T15:30:07.412Z,25.75
2022-07-27T15:32:40.592Z,25.76
2022-07-27T15:35:14.291Z,25.77
2022-07-27T15:37:54.623Z,25.77
2022-07-27T15:40:41.927Z,25.74
2022-07-27T15:43:17.576Z,25.77
2022-07-27T15:45:52.412Z,25.78
2022-07-27T15:48:26.532Z,25.78
2022-07-27T15:51:00.066Z,25.73
2022-07-27T15:53:33.983Z,25.63
2022-07-27T15:56:07.593Z,25.60
2022-07-27T15:58:41.252Z,25.61
2022-07-27T16:01:14.638Z,25.61
2022-07-27T16:03:48.544Z,25.58
2022-07-27T16:06:22.224Z,25.59
2022-07-27T16:08:55.570Z,25.61
2022-07-27T16:11:29.606Z,25.62
2022-07-27T16:14:03.089Z,25.62
2022-07-27T16:16:36.659Z,25.60
2022-07-27T16:19:14.341Z,25.57
2022-07-27T16:21:53.725Z,25.46
2022-07-27T16:24:31.329Z,25.44
2022-07-27T16:27:08.427Z,25.47
2022-07-27T16:29:41.816Z,25.51
2022-07-27T16:32:15.090Z,25.57
2022-07-27T16:34:48.672Z,25.58
2022-07-27T16:37:22.491Z,25.57
2022-07-27T16:39:55.873Z,25.53
2022-07-27T16:42:29.383Z,25.48
2022-07-27T16:45:02.647Z,25.44
2022-07-27T16:47:36.821Z,25.44
2022-07-27T16:50:11.499Z,25.44
2022-07-27T16:52:44.714Z,25.42
2022-07-27T16:55:18.194Z,25.40
2022-07-27T16:57:51.652Z,25.37
2022-07-27T17:00:25.267Z,25.30
2022-07-27T17:02:58.623Z,25.25
2022-07-27T17:05:32.566Z,25.23
2022-07-27T17:08:06.768Z,25.21
2022-07-27T17:10:40.180Z,25.19
2022-07-27T17:13:15.173Z,25.16
2022-07-27T17:15:49.052Z,25.14
2022-07-27T17:18:23.224Z,25.13
2022-07-27T17:20:57.152Z,25.09
2022-07-27T17:23:35.910Z,25.00
2022-07-27T17:26:10.713Z,24.95
2022-07-27T17:28:44.683Z,24.91
2022-07-27T17:31:19.174Z,24.83
2022-07-27T17:33:53.028Z,24.75
2022-07-27T17:36:27.181Z,24.67
2022-07-27T17:39:02.693Z,24.60
2022-07-27T17:41:36.329Z,24.54
2022-07-27T17:44:10.029Z,24.48
2022-07-27T17:46:43.932Z,24.44
2022-07-27T17:49:17.544Z,24.41
2022-07-27T17:51:51.246Z,24.38
2022-07-27T17:54:24.934Z,24.33
2022-07-27T17:56:58.466Z,24.29
2022-07-27T17:59:37.941Z,24.25
2022-07-27T18:02:13.024Z,24.21
2022-07-27T18:04:47.210Z,24.19
2022-07-27T18:07:20.920Z,24.17
2022-07-27T18:09:55.006Z,24.14
2022-07-27T18:12:29.089Z,24.09
2022-07-27T18:15:20.627Z,24.04
2022-07-27T18:17:54.207Z,23.98
2022-07-27T18:20:27.887Z,23.95
2022-07-27T18:23:00.998Z,23.88
2022-07-27T18:25:34.469Z,23.83
2022-07-27T18:28:08.403Z,23.77
2022-07-27T18:30:41.794Z,23.71
2022-07-27T18:33:15.422Z,23.65
2022-07-27T18:35:49.968Z,23.56
2022-07-27T18:38:23.745Z,23.48
2022-07-27T18:40:57.033Z,23.39
2022-07-27T18:43:30.949Z,23.30
2022-07-27T18:46:04.725Z,23.26
2022-07-27T18:48:38.857Z,23.21
2022-07-27T18:51:12.148Z,23.15
2022-07-27T18:53:45.640Z,23.11
2022-07-27T18:56:19.737Z,23.05
2022-07-27T18:58:55.103Z,22.99
2022-07-27T19:01:28.611Z,22.91
2022-07-27T19:04:02.787Z,22.85
2022-07-27T19:06:37.390Z,22.79
2022-07-27T19:09:11.463Z,22.73
2022-07-27T19:11:46.229Z,22.66
2022-07-27T19:14:23.895Z,22.62
2022-07-27T19:16:58.268Z,22.54
2022-07-27T19:19:32.361Z,22.46
2022-07-27T19:22:07.058Z,22.36
2022-07-27T19:24:42.383Z,22.32
2022-07-27T19:27:17.915Z,22.31
2022-07-27T19:29:52.229Z,22.31
2022-07-27T19:32:27.217Z,22.28
2022-07-27T19:35:01.493Z,22.24
2022-07-27T19:37:36.341Z,22.21
2022-07-27T19:40:41.390Z,22.17
2022-07-27T19:43:07.187Z,22.10
2022-07-27T19:45:42.076Z,22.04
2022-07-27T19:48:16.998Z,22.01
2022-07-27T19:50:51.012Z,21.98
2022-07-27T19:53:25.182Z,21.92
2022-07-27T19:56:00.466Z,21.91
2022-07-27T19:58:34.762Z,21.92
2022-07-27T20:01:10.369Z,21.91
2022-07-27T20:03:52.125Z,21.90
2022-07-27T20:06:29.882Z,21.86
2022-07-27T20:09:08.038Z,21.86
2022-07-27T20:11:40.713Z,21.86
2022-07-27T20:14:14.979Z,21.82
2022-07-27T20:16:51.285Z,21.78
2022-07-27T20:19:27.789Z,21.74
2022-07-27T20:22:02.772Z,21.70
2022-07-27T20:24:38.064Z,21.65
2022-07-27T20:27:12.127Z,21.59
2022-07-27T20:29:46.323Z,21.54
2022-07-27T20:32:19.949Z,21.51
2022-07-27T20:34:54.295Z,21.49
2022-07-27T20:37:28.057Z,21.47
2022-07-27T20:40:02.090Z,21.45
2022-07-27T20:42:35.950Z,21.41
2022-07-27T20:45:16.065Z,21.35
2022-07-27T20:47:50.013Z,21.33
2022-07-27T20:50:23.742Z,21.31
2022-07-27T20:52:58.566Z,21.28
2022-07-27T20:55:33.404Z,21.25
2022-07-27T20:58:06.687Z,21.22
2022-07-27T21:00:40.611Z,21.19
2022-07-27T21:03:13.864Z,21.17
2022-07-27T21:05:47.205Z,21.13
2022-07-27T21:08:20.620Z,21.05
2022-07-27T21:10:54.229Z,21.01
2022-07-27T21:13:28.538Z,20.98
2022-07-27T21:16:02.092Z,20.94
2022-07-27T21:18:36.140Z,20.89
2022-07-27T21:21:09.349Z,20.86
2022-07-27T21:24:00.298Z,20.81
2022-07-27T21:26:36.383Z,20.72
2022-07-27T21:29:10.975Z,20.65
2022-07-27T21:31:49.168Z,20.60
2022-07-27T21:34:24.535Z,20.54
2022-07-27T21:36:57.789Z,20.48
2022-07-27T21:39:31.681Z,20.42
2022-07-27T21:42:05.447Z,20.38
2022-07-27T21:44:38.967Z,20.32
2022-07-27T21:47:14.405Z,20.27
2022-07-27T21:49:48.206Z,20.24
2022-07-27T21:52:21.733Z,20.20
2022-07-27T21:54:55.651Z,20.16
2022-07-27T21:57:29.208Z,20.11
2022-07-27T22:00:02.606Z,20.05
2022-07-27T22:02:37.770Z,20.00
2022-07-27T22:05:12.147Z,19.94
2022-07-27T22:07:45.592Z,19.90
2022-07-27T22:10:59.642Z,19.84
2022-07-27T22:13:36.108Z,19.79
2022-07-27T22:16:13.286Z,19.75
2022-07-27T22:18:47.531Z,19.71
2022-07-27T22:21:21.545Z,19.70
2022-07-27T22:23:55.328Z,19.66
2022-07-27T22:26:29.038Z,19.61
2022-07-27T22:29:02.743Z,19.57
2022-07-27T22:31:36.417Z,19.54
2022-07-27T22:34:10.450Z,19.51
2022-07-27T22:36:44.346Z,19.44
2022-07-27T22:39:18.669Z,19.37
2022-07-27T22:41:52.096Z,19.31
2022-07-27T22:44:25.585Z,19.29
2022-07-27T22:46:59.259Z,19.24
2022-07-27T22:49:32.506Z,19.19
2022-07-27T22:52:06.462Z,19.14
2022-07-27T22:54:40.309Z,19.08
2022-07-27T22:57:14.135Z,19.07
2022-07-27T22:59:47.153Z,19.03
2022-07-27T23:02:21.249Z,18.98
2022-07-27T23:04:56.660Z,18.92
2022-07-27T23:07:30.362Z,18.88
2022-07-27T23:10:03.887Z,18.85
2022-07-27T23:12:37.043Z,18.81
2022-07-27T23:15:11.976Z,18.75
2022-07-27T23:17:45.412Z,18.72
2022-07-27T23:20:19.061Z,18.68
2022-07-27T23:22:52.681Z,18.67
2022-07-27T23:25:36.285Z,18.66
2022-07-27T23:28:10.178Z,18.64
2022-07-27T23:30:44.046Z,18.62
2022-07-27T23:33:17.657Z,18.58
2022-07-27T23:35:51.425Z,18.57
2022-07-27T23:38:24.692Z,18.55
2022-07-27T23:40:58.289Z,18.53
2022-07-27T23:43:31.657Z,18.51
2022-07-27T23:46:04.966Z,18.50
2022-07-27T23:48:38.775Z,18.47
2022-07-27T23:51:17.128Z,18.40
2022-07-27T23:53:50.789Z,18.34
2022-07-27T23:56:24.143Z,18.30
2022-07-27T23:58:57.850Z,18.27
